Time;durP1;ratioP1;P1;durP2;ratioP2;P2;SDS_P1;SDS_P2;PMS_P1;PMS_P2;Temp;Humidity;BMP_temperature;BMP_pressure;BME280_temperature;BME280_humidity;BME280_pressure;Samples;Min_cycle;Max_cycle;Signal;HPM_P1;HPM_P2
2023/03/21 00:01:51;;;;;;;7.80;5.30;;;;;;;6.59;76.90;95515.94;106609;1276;25347;-65
2023/03/21 00:04:24;;;;;;;10.40;4.80;;;;;;;6.56;77.54;95519.10;106621;1264;24233;-64
2023/03/21 00:06:54;;;;;;;11.90;8.80;;;;;;;6.55;77.70;95517.88;106609;1276;22725;-65
2023/03/21 00:09:22;;;;;;;11.60;8.00;;;;;;;6.54;77.50;95517.70;106553;1276;22522;-64
2023/03/21 00:11:50;;;;;;;13.60;8.90;;;;;;;6.54;77.58;95517.70;106617;1276;22778;-64
2023/03/21 00:14:19;;;;;;;9.50;7.10;;;;;;;6.54;77.73;95517.00;106583;1276;22566;-64
2023/03/21 00:16:51;;;;;;;6.30;4.90;;;;;;;6.50;77.67;95515.61;106645;1276;24187;-65
2023/03/21 00:19:23;;;;;;;8.50;5.20;;;;;;;6.44;77.60;95514.94;106611;1276;22528;-64
2023/03/21 00:21:54;;;;;;;8.10;5.30;;;;;;;6.46;78.53;95510.91;106594;1276;24231;-65
2023/03/21 00:24:36;;;;;;;9.80;5.50;;;;;;;6.49;78.22;95508.27;106570;1276;24071;-64
2023/03/21 00:27:04;;;;;;;12.30;7.10;;;;;;;6.50;78.73;95508.10;106617;1276;22531;-64
2023/03/21 00:29:55;;;;;;;7.40;4.90;;;;;;;6.49;78.24;95506.00;106546;1276;25377;-65
2023/03/21 00:32:23;;;;;;;5.80;3.90;;;;;;;6.45;78.26;95505.34;106583;1276;24392;-64
2023/03/21 00:34:52;;;;;;;7.70;4.30;;;;;;;6.52;78.94;95499.19;106647;1276;22993;-64
2023/03/21 00:37:41;;;;;;;11.20;5.10;;;;;;;6.57;78.77;95497.41;106524;1276;22746;-64
2023/03/21 00:40:12;;;;;;;9.70;5.50;;;;;;;6.69;79.03;95495.61;106606;1266;24363;-64
2023/03/21 00:42:56;;;;;;;8.50;4.70;;;;;;;6.80;78.67;95495.02;106552;1276;22517;-64
2023/03/21 00:45:26;;;;;;;7.80;4.30;;;;;;;6.87;78.29;95498.48;106587;1276;25234;-64
2023/03/21 00:47:54;;;;;;;6.60;4.00;;;;;;;6.89;78.15;95496.73;106560;1276;22522;-65
2023/03/21 00:50:23;;;;;;;7.50;4.40;;;;;;;6.91;78.23;95498.98;106635;1276;22612;-64
2023/03/21 00:52:51;;;;;;;5.70;3.80;;;;;;;6.80;77.70;95500.45;106655;1276;24251;-64
2023/03/21 00:55:19;;;;;;;7.90;4.40;;;;;;;6.72;77.99;95502.23;106598;1276;22522;-64
2023/03/21 00:57:48;;;;;;;5.10;4.30;;;;;;;6.61;78.04;95500.54;106598;1276;22520;-65
2023/03/21 01:00:29;;;;;;;4.60;4.00;;;;;;;6.60;78.74;95501.42;106573;1276;22518;-64
2023/03/21 01:03:06;;;;;;;8.40;4.70;;;;;;;6.67;79.02;95501.40;106581;1276;25317;-64
2023/03/21 01:06:05;;;;;;;7.60;4.50;;;;;;;6.75;78.95;95501.70;106586;1276;22518;-65
2023/03/21 01:08:37;;;;;;;7.20;4.90;;;;;;;6.79;78.40;95497.48;106564;1276;22654;-64
2023/03/21 01:11:26;;;;;;;11.00;5.20;;;;;;;6.69;77.97;95496.32;106481;1253;23335;-64
2023/03/21 01:13:54;;;;;;;9.80;6.20;;;;;;;6.70;78.06;95496.30;106770;1276;23900;-64
2023/03/21 01:16:38;;;;;;;9.00;6.20;;;;;;;6.78;78.28;95498.71;106830;1276;22647;-64
2023/03/21 01:19:08;;;;;;;8.10;5.50;;;;;;;6.76;77.86;95497.52;106658;1276;22511;-64
2023/03/21 01:21:51;;;;;;;7.00;4.10;;;;;;;6.65;77.76;95493.88;106535;1276;24066;-64
2023/03/21 01:24:20;;;;;;;6.70;4.50;;;;;;;6.49;77.60;95490.98;106564;1276;22514;-65
2023/03/21 01:26:49;;;;;;;5.60;4.70;;;;;;;6.39;78.01;95488.94;106514;1276;22532;-64
2023/03/21 01:29:17;;;;;;;8.10;5.00;;;;;;;6.35;78.21;95485.97;106556;1276;22618;-64
2023/03/21 01:31:45;;;;;;;6.80;5.60;;;;;;;6.30;78.42;95484.08;106573;1276;25358;-65
2023/03/21 01:34:14;;;;;;;6.20;4.40;;;;;;;6.25;78.67;95482.52;106600;1276;22524;-65
2023/03/21 01:36:42;;;;;;;24.70;14.20;;;;;;;6.18;78.75;95479.75;106559;1276;22565;-65
2023/03/21 01:39:15;;;;;;;8.50;5.60;;;;;;;6.14;78.54;95481.34;106607;1276;25295;-65
2023/03/21 01:41:43;;;;;;;12.10;8.50;;;;;;;6.11;78.57;95478.89;106562;1276;22551;-65
2023/03/21 01:44:20;;;;;;;9.90;7.10;;;;;;;6.06;78.77;95478.21;106604;1276;24372;-65
2023/03/21 01:46:52;;;;;;;10.60;6.70;;;;;;;6.06;78.77;95477.34;106609;1276;25304;-66
2023/03/21 01:49:51;;;;;;;9.20;5.00;;;;;;;6.01;78.92;95477.54;106598;1276;22527;-65
2023/03/21 01:52:33;;;;;;;6.90;4.90;;;;;;;5.98;79.15;95478.60;106559;1276;23878;-64
2023/03/21 01:55:18;;;;;;;6.00;4.20;;;;;;;5.96;79.31;95477.90;106586;1276;24340;-64
2023/03/21 01:58:17;;;;;;;9.20;5.60;;;;;;;5.90;79.26;95475.97;106387;1276;22631;-65
2023/03/21 02:01:01;;;;;;;9.00;5.40;;;;;;;5.89;79.19;95480.15;106563;1276;24232;-64
2023/03/21 02:03:49;;;;;;;6.80;5.20;;;;;;;5.95;79.53;95477.73;106794;1276;22559;-64
2023/03/21 02:07:00;;;;;;;7.60;5.10;;;;;;;5.98;79.82;95475.10;106479;1276;22576;-64
2023/03/21 02:09:44;;;;;;;8.00;4.90;;;;;;;5.98;79.96;95470.74;106593;1276;22792;-64
2023/03/21 02:12:17;;;;;;;8.70;5.00;;;;;;;5.93;79.49;95470.55;106764;1276;25394;-65
2023/03/21 02:14:48;;;;;;;8.80;5.30;;;;;;;5.91;79.63;95471.42;106608;1276;22539;-65
2023/03/21 02:17:39;;;;;;;5.60;4.80;;;;;;;5.94;80.12;95471.95;106776;1276;25234;-64
2023/03/21 02:20:14;;;;;;;7.70;6.60;;;;;;;5.99;80.47;95473.52;106693;1276;22664;-64
2023/03/21 02:23:04;;;;;;;6.50;5.00;;;;;;;6.09;80.54;95471.05;106640;1276;22517;-64
2023/03/21 02:25:56;;;;;;;13.70;5.40;;;;;;;6.13;80.41;95469.98;106698;1276;22525;-64
2023/03/21 02:28:44;;;;;;;9.10;5.10;;;;;;;6.21;80.76;95471.02;106542;1276;22510;-65
2023/03/21 02:31:38;;;;;;;6.20;4.90;;;;;;;6.24;80.32;95468.90;106594;1276;25421;-64
2023/03/21 02:34:15;;;;;;;8.50;5.40;;;;;;;6.18;79.83;95468.23;106552;1276;22525;-65
2023/03/21 02:36:49;;;;;;;8.10;5.50;;;;;;;6.17;80.58;95468.23;106539;1276;22542;-64
2023/03/21 02:39:42;;;;;;;9.20;5.10;;;;;;;6.16;80.08;95467.70;106581;1276;22527;-64
2023/03/21 02:42:32;;;;;;;19.90;13.20;;;;;;;6.10;79.94;95472.46;106545;1276;22509;-65
2023/03/21 02:45:20;;;;;;;7.40;5.60;;;;;;;6.04;80.67;95470.54;106613;1276;23788;-64
2023/03/21 02:48:10;;;;;;;11.20;7.20;;;;;;;6.10;80.77;95472.10;106572;1276;22937;-65
2023/03/21 02:50:56;;;;;;;12.40;7.00;;;;;;;6.08;80.76;95471.92;106576;1276;25453;-64
2023/03/21 02:53:31;;;;;;;8.30;4.90;;;;;;;6.12;80.89;95472.61;106540;1276;22519;-65
2023/03/21 02:56:02;;;;;;;10.60;7.10;;;;;;;6.06;80.19;95471.08;106564;1276;24234;-67
2023/03/21 02:58:32;;;;;;;9.10;5.10;;;;;;;5.98;80.20;95472.66;106560;1276;22534;-65
2023/03/21 03:01:01;;;;;;;8.80;6.10;;;;;;;5.91;79.93;95472.30;106372;1276;25379;-65
2023/03/21 03:03:38;;;;;;;9.00;6.00;;;;;;;5.89;80.07;95473.52;106522;1276;22505;-65
2023/03/21 03:06:15;;;;;;;9.50;6.20;;;;;;;5.86;79.92;95470.55;106523;1276;24213;-65
2023/03/21 03:09:06;;;;;;;9.20;5.80;;;;;;;5.78;79.78;95474.59;106563;1276;23447;-65
2023/03/21 03:11:43;;;;;;;7.60;5.70;;;;;;;5.70;79.76;95473.73;106563;1276;24446;-65
2023/03/21 03:14:26;;;;;;;7.60;6.20;;;;;;;5.63;79.80;95468.67;106558;1255;23021;-65
2023/03/21 03:17:20;;;;;;;6.70;5.50;;;;;;;5.57;79.93;95469.73;106626;1276;25410;-65
2023/03/21 03:20:24;;;;;;;9.00;6.80;;;;;;;5.50;79.81;95471.31;106567;1276;22527;-65
2023/03/21 03:23:00;;;;;;;11.60;6.50;;;;;;;5.46;79.93;95470.10;106622;1276;25358;-65
2023/03/21 03:25:36;;;;;;;10.50;6.80;;;;;;;5.39;79.68;95466.61;106551;1276;22888;-65
2023/03/21 03:28:18;;;;;;;8.40;6.10;;;;;;;5.32;79.92;95466.63;106557;1276;22516;-65
2023/03/21 03:30:49;;;;;;;13.20;7.90;;;;;;;5.21;80.16;95469.92;106513;1276;22644;-65
2023/03/21 03:33:42;;;;;;;7.40;5.90;;;;;;;5.07;80.18;95473.59;106549;1276;22640;-65
2023/03/21 03:36:14;;;;;;;21.00;8.50;;;;;;;4.92;79.86;95470.27;106579;1276;22606;-65
2023/03/21 03:39:00;;;;;;;13.80;7.70;;;;;;;4.81;80.10;95473.20;106565;1266;24330;-65
2023/03/21 03:41:32;;;;;;;13.80;7.70;;;;;;;4.80;80.46;95471.98;106610;1276;25262;-66
2023/03/21 03:44:21;;;;;;;8.80;6.10;;;;;;;4.76;80.30;95470.41;106605;1276;22639;-65
2023/03/21 03:47:27;;;;;;;11.10;6.50;;;;;;;4.74;80.71;95467.81;106509;1276;25236;-65
2023/03/21 03:50:12;;;;;;;10.60;6.70;;;;;;;4.65;80.54;95468.99;106552;1276;22664;-65
2023/03/21 03:52:50;;;;;;;11.50;6.80;;;;;;;4.58;81.32;95471.60;106742;1276;22638;-65
2023/03/21 03:55:33;;;;;;;10.10;7.00;;;;;;;4.58;81.70;95462.37;106590;1276;25306;-65
2023/03/21 03:58:09;;;;;;;10.40;6.40;;;;;;;4.61;81.70;95467.08;106645;1276;22536;-65
2023/03/21 04:00:54;;;;;;;10.30;6.10;;;;;;;4.62;81.58;95464.80;106625;1276;25396;-65
2023/03/21 04:03:23;;;;;;;11.40;6.90;;;;;;;4.63;81.69;95466.03;106589;1276;22912;-65
2023/03/21 04:05:52;;;;;;;7.70;6.50;;;;;;;4.64;81.58;95465.86;106564;1276;24381;-65
2023/03/21 04:08:22;;;;;;;11.60;6.60;;;;;;;4.61;81.09;95464.80;106465;1276;24364;-65
2023/03/21 04:10:52;;;;;;;11.30;7.50;;;;;;;4.57;81.16;95465.32;106564;1276;25330;-64
2023/03/21 04:13:21;;;;;;;9.60;6.60;;;;;;;4.52;81.30;95466.70;106572;1276;25396;-65
2023/03/21 04:16:06;;;;;;;10.70;7.30;;;;;;;4.51;81.27;95470.70;106607;1276;22525;-66
2023/03/21 04:18:35;;;;;;;8.10;5.90;;;;;;;4.51;81.34;95470.02;106605;1276;24331;-66
2023/03/21 04:21:07;;;;;;;11.20;7.10;;;;;;;4.45;81.04;95470.52;106569;1276;22518;-66
2023/03/21 04:23:35;;;;;;;24.90;11.50;;;;;;;4.37;81.20;95468.23;106606;1276;22700;-66
2023/03/21 04:26:04;;;;;;;11.40;6.80;;;;;;;4.27;81.14;95471.67;106567;1276;24249;-66
2023/03/21 04:28:40;;;;;;;13.10;6.50;;;;;;;4.22;81.23;95471.98;106760;1276;24311;-67
2023/03/21 04:31:34;;;;;;;12.80;7.70;;;;;;;4.17;81.31;95474.24;106356;1276;25394;-66
2023/03/21 04:34:11;;;;;;;12.00;8.10;;;;;;;4.16;81.79;95474.23;106566;1276;22523;-67
2023/03/21 04:36:46;;;;;;;15.00;7.40;;;;;;;4.17;81.56;95476.51;106567;1276;25359;-66
2023/03/21 04:39:16;;;;;;;12.50;9.20;;;;;;;4.17;81.48;95478.95;106612;1276;24862;-66
2023/03/21 04:41:48;;;;;;;9.50;7.30;;;;;;;4.12;81.60;95481.17;106567;1276;22625;-66
2023/03/21 04:44:17;;;;;;;10.20;6.80;;;;;;;4.00;81.76;95483.91;106534;1276;25367;-66
2023/03/21 04:46:46;;;;;;;12.20;7.50;;;;;;;3.88;81.56;95480.02;106559;1276;22517;-67
2023/03/21 04:49:14;;;;;;;10.00;6.60;;;;;;;3.83;81.65;95482.96;106531;1265;24049;-67
2023/03/21 04:51:44;;;;;;;12.80;8.30;;;;;;;3.76;81.73;95486.58;106640;1276;23124;-67
2023/03/21 04:54:17;;;;;;;13.80;8.20;;;;;;;3.73;81.74;95486.73;106595;1276;22537;-67
2023/03/21 04:56:45;;;;;;;11.60;7.60;;;;;;;3.66;81.90;95487.55;106633;1276;25984;-67
2023/03/21 04:59:15;;;;;;;8.40;6.60;;;;;;;3.60;81.77;95488.21;106828;1276;22866;-66
2023/03/21 05:01:44;;;;;;;40.40;20.50;;;;;;;3.57;81.64;95490.27;106895;1276;23004;-66
2023/03/21 05:04:13;;;;;;;30.70;15.70;;;;;;;3.52;81.73;95489.71;106782;1276;22629;-66
2023/03/21 05:06:43;;;;;;;12.80;9.10;;;;;;;3.48;81.70;95491.42;106752;1276;22530;-66
2023/03/21 05:09:12;;;;;;;39.70;19.70;;;;;;;3.50;81.93;95491.96;106564;1276;25470;-66
2023/03/21 05:11:41;;;;;;;13.10;9.10;;;;;;;3.48;82.31;95489.16;106699;1276;25400;-66
2023/03/21 05:14:15;;;;;;;13.80;9.10;;;;;;;3.54;82.56;95490.77;106660;1276;25391;-67
2023/03/21 05:16:51;;;;;;;12.70;7.50;;;;;;;3.60;82.84;95491.16;106374;1276;25183;-67
2023/03/21 05:19:24;;;;;;;27.00;16.80;;;;;;;3.70;82.86;95494.89;106608;1276;25373;-66
2023/03/21 05:21:53;;;;;;;30.80;18.40;;;;;;;3.74;83.48;95496.65;106517;1276;24236;-67
2023/03/21 05:24:25;;;;;;;21.30;13.40;;;;;;;3.80;83.24;95495.10;106840;1276;24250;-67
2023/03/21 05:26:54;;;;;;;14.00;8.50;;;;;;;3.84;83.08;95492.70;106765;1276;25510;-66
2023/03/21 05:29:28;;;;;;;12.50;7.40;;;;;;;3.93;83.11;95491.88;106474;1266;23276;-67
2023/03/21 05:32:06;;;;;;;9.10;6.90;;;;;;;4.06;83.33;95493.52;106622;1276;24373;-67
2023/03/21 05:34:35;;;;;;;14.30;8.10;;;;;;;4.07;83.15;95494.58;106669;1276;22654;-66
2023/03/21 05:37:04;;;;;;;13.80;9.50;;;;;;;4.08;83.68;95491.44;106693;1276;25398;-66
2023/03/21 05:39:47;;;;;;;10.60;7.80;;;;;;;4.24;84.18;95490.13;106572;1276;25403;-66
2023/03/21 05:42:26;;;;;;;16.80;10.30;;;;;;;4.38;83.64;95492.08;106634;1276;23262;-66
2023/03/21 05:44:54;;;;;;;24.80;12.90;;;;;;;4.42;83.28;95489.48;106617;1276;24263;-66
2023/03/21 05:47:27;;;;;;;19.90;10.80;;;;;;;4.52;84.16;95487.77;106575;1276;26524;-66
2023/03/21 05:49:56;;;;;;;13.80;9.10;;;;;;;4.66;84.03;95481.55;106652;1276;25397;-66
2023/03/21 05:52:25;;;;;;;16.20;11.20;;;;;;;4.79;83.89;95485.23;106510;1276;25726;-67
2023/03/21 05:54:54;;;;;;;27.60;17.10;;;;;;;5.00;83.96;95487.88;106620;1276;25329;-67
2023/03/21 05:57:26;;;;;;;22.60;14.50;;;;;;;5.15;83.55;95486.84;106591;1276;25226;-66
2023/03/21 06:00:06;;;;;;;23.10;15.20;;;;;;;5.23;83.13;95483.55;106545;1276;25264;-67
2023/03/21 06:02:43;;;;;;;23.70;15.10;;;;;;;5.39;83.22;95481.45;106666;1276;23152;-72
2023/03/21 06:05:35;;;;;;;20.80;14.90;;;;;;;5.55;82.91;95481.95;106352;1276;22529;-71
2023/03/21 06:08:05;;;;;;;22.90;13.20;;;;;;;5.67;82.77;95485.96;106512;1276;23886;-70
2023/03/21 06:10:34;;;;;;;17.00;12.20;;;;;;;5.79;82.57;95479.30;106516;1276;22513;-68
2023/03/21 06:13:03;;;;;;;17.40;13.10;;;;;;;5.91;82.56;95480.52;106470;1276;22527;-66
2023/03/21 06:15:33;;;;;;;17.10;12.50;;;;;;;6.03;82.45;95482.06;106608;1276;25290;-65
2023/03/21 06:18:11;;;;;;;17.60;12.70;;;;;;;6.14;82.01;95483.09;106406;1276;25141;-65
2023/03/21 06:20:42;;;;;;;21.60;13.60;;;;;;;6.23;81.82;95481.84;109013;1276;22823;-63
2023/03/21 06:23:11;;;;;;;19.90;14.00;;;;;;;6.30;81.40;95480.06;106507;1276;25661;-65
2023/03/21 06:25:39;;;;;;;19.20;13.00;;;;;;;6.37;81.02;95480.55;106642;1276;22533;-66
2023/03/21 06:28:08;;;;;;;21.70;13.40;;;;;;;6.42;80.96;95480.19;106336;1276;25472;-65
2023/03/21 06:30:39;;;;;;;24.80;15.60;;;;;;;6.51;81.01;95478.73;106342;1274;24053;-67
2023/03/21 06:33:20;;;;;;;29.80;17.60;;;;;;;6.62;81.00;95475.55;106460;1276;22513;-64
2023/03/21 06:35:53;;;;;;;30.10;18.00;;;;;;;6.74;80.79;95475.48;106395;1276;25320;-66
2023/03/21 06:38:22;;;;;;;24.20;15.80;;;;;;;6.85;80.66;95475.07;106698;1276;24027;-64
2023/03/21 06:40:50;;;;;;;26.30;17.60;;;;;;;6.94;80.42;95476.23;108055;1276;22636;-65
2023/03/21 06:43:21;;;;;;;22.80;15.90;;;;;;;7.04;80.14;95471.27;110144;1276;22524;-65
2023/03/21 06:45:49;;;;;;;25.60;15.70;;;;;;;7.14;79.97;95467.70;106565;1276;24327;-67
2023/03/21 06:48:18;;;;;;;23.80;16.10;;;;;;;7.25;79.87;95462.90;106370;1276;22643;-68
2023/03/21 06:50:51;;;;;;;21.40;14.60;;;;;;;7.37;79.62;95461.58;106357;1276;24029;-67
2023/03/21 06:53:23;;;;;;;21.10;14.90;;;;;;;7.55;79.81;95461.95;110383;1276;22182;-64
2023/03/21 06:56:15;;;;;;;17.90;13.30;;;;;;;7.78;79.43;95459.80;106420;1276;22639;-65
2023/03/21 06:58:45;;;;;;;18.60;13.20;;;;;;;8.02;78.84;95459.02;108445;1276;24241;-65
2023/03/21 07:01:32;;;;;;;23.00;15.70;;;;;;;8.29;78.46;95457.30;110480;1276;23066;-64
2023/03/21 07:04:05;;;;;;;25.60;15.80;;;;;;;8.56;77.94;95455.96;108936;1276;22608;-65
2023/03/21 07:06:34;;;;;;;29.10;18.30;;;;;;;8.87;77.85;95453.80;106603;1276;22524;-68
2023/03/21 07:09:04;;;;;;;25.60;16.70;;;;;;;9.13;77.01;95450.09;106423;1276;22649;-63
2023/03/21 07:11:35;;;;;;;23.00;15.30;;;;;;;9.30;76.18;95446.29;106754;1276;24200;-67
2023/03/21 07:14:05;;;;;;;21.70;14.20;;;;;;;9.41;75.41;95443.30;106757;1276;25608;-68
2023/03/21 07:16:33;;;;;;;19.10;14.10;;;;;;;9.48;74.07;95441.61;106728;1276;22531;-71
2023/03/21 07:19:02;;;;;;;17.80;13.10;;;;;;;9.57;74.16;95440.95;106926;1276;22534;-70
2023/03/21 07:21:31;;;;;;;14.50;11.40;;;;;;;9.66;73.54;95442.19;106809;1276;22531;-66
2023/03/21 07:23:59;;;;;;;16.20;12.60;;;;;;;9.76;72.60;95445.70;106684;1276;23030;-65
2023/03/21 07:26:28;;;;;;;17.30;11.30;;;;;;;9.84;72.42;95443.11;106862;1276;22523;-66
2023/03/21 07:28:58;;;;;;;17.30;12.00;;;;;;;9.89;71.68;95443.35;106747;1276;25264;-67
2023/03/21 07:31:28;;;;;;;20.80;13.00;;;;;;;9.99;71.78;95447.39;106584;1276;23907;-67
2023/03/21 07:33:56;;;;;;;20.40;13.60;;;;;;;10.08;71.44;95451.09;106621;1276;25388;-70
2023/03/21 07:36:26;;;;;;;25.00;15.60;;;;;;;10.14;70.76;95453.42;106640;1276;22539;-70
2023/03/21 07:38:55;;;;;;;23.10;15.10;;;;;;;10.20;70.68;95453.69;106575;1276;22628;-65
2023/03/21 07:41:24;;;;;;;18.50;13.50;;;;;;;10.25;69.97;95455.34;106577;1276;22520;-69
2023/03/21 07:43:53;;;;;;;23.70;12.10;;;;;;;10.30;69.28;95454.05;106300;1276;24197;-69
2023/03/21 07:46:21;;;;;;;21.50;10.90;;;;;;;10.34;67.95;95452.20;106435;1276;22543;-69
2023/03/21 07:48:49;;;;;;;23.50;11.40;;;;;;;10.37;67.59;95449.14;106363;1274;25341;-70
2023/03/21 07:51:18;;;;;;;39.40;12.80;;;;;;;10.44;68.13;95448.81;106408;1276;22805;-71
2023/03/21 07:53:47;;;;;;;26.00;11.40;;;;;;;10.55;68.09;95451.08;106462;1276;22523;-69
2023/03/21 07:56:15;;;;;;;28.10;11.90;;;;;;;10.65;67.35;95449.98;106430;1276;23009;-71
2023/03/21 07:58:44;;;;;;;24.40;10.60;;;;;;;10.75;66.87;95449.77;106300;1276;25474;-67
2023/03/21 08:01:12;;;;;;;19.20;10.00;;;;;;;10.87;65.06;95451.62;110443;1276;22204;-68
2023/03/21 08:03:40;;;;;;;20.90;11.40;;;;;;;11.00;65.66;95449.20;109144;1276;22518;-69
2023/03/21 08:06:10;;;;;;;23.50;12.00;;;;;;;11.12;64.63;95450.70;106315;1276;24389;-68
2023/03/21 08:08:38;;;;;;;22.00;16.80;;;;;;;11.25;64.21;95447.75;108590;1276;22510;-70
2023/03/21 08:11:07;;;;;;;20.20;11.80;;;;;;;11.42;64.15;95442.42;106781;1276;22567;-68
2023/03/21 08:13:35;;;;;;;17.50;11.50;;;;;;;11.57;63.82;95442.24;106520;1276;22638;-67
2023/03/21 08:16:04;;;;;;;15.00;11.20;;;;;;;11.70;63.27;95443.14;106388;1276;22632;-67
2023/03/21 08:18:32;;;;;;;18.40;11.60;;;;;;;11.87;62.62;95440.98;106459;1276;25141;-68
2023/03/21 08:21:01;;;;;;;17.10;11.80;;;;;;;12.04;61.21;95439.64;106579;1276;22534;-67
2023/03/21 08:23:30;;;;;;;14.40;10.30;;;;;;;12.19;60.59;95440.30;108632;1276;22966;-65
2023/03/21 08:25:58;;;;;;;14.40;9.70;;;;;;;12.29;59.55;95438.08;106472;1276;25359;-67
2023/03/21 08:28:26;;;;;;;13.50;10.00;;;;;;;12.34;58.13;95437.41;106420;1276;25442;-68
2023/03/21 08:30:54;;;;;;;12.40;9.60;;;;;;;12.42;58.09;95439.13;106349;1276;22996;-67
2023/03/21 08:33:23;;;;;;;13.70;10.40;;;;;;;12.48;56.86;95438.45;108202;1276;22523;-67
2023/03/21 08:35:51;;;;;;;14.00;10.10;;;;;;;12.54;56.96;95437.70;106409;1276;24009;-67
2023/03/21 08:38:20;;;;;;;14.20;9.60;;;;;;;12.69;57.89;95435.72;106344;1276;24205;-67
2023/03/21 08:40:49;;;;;;;13.80;10.30;;;;;;;12.83;56.70;95435.84;107437;1276;24243;-68
2023/03/21 08:43:17;;;;;;;18.20;10.80;;;;;;;12.91;54.64;95432.91;106842;1276;22526;-70
2023/03/21 08:45:46;;;;;;;12.60;9.60;;;;;;;13.04;54.70;95432.70;106314;1276;25594;-70
2023/03/21 08:48:14;;;;;;;13.80;10.20;;;;;;;13.15;53.69;95431.68;106310;1276;22639;-70
2023/03/21 08:50:43;;;;;;;11.70;9.00;;;;;;;13.18;53.08;95431.73;106331;1266;22572;-70
2023/03/21 08:53:12;;;;;;;15.30;9.30;;;;;;;13.18;53.06;95431.58;108030;1276;23903;-70
2023/03/21 08:55:40;;;;;;;14.80;7.90;;;;;;;13.25;53.85;95433.86;107034;1271;22528;-71
2023/03/21 08:58:08;;;;;;;10.90;8.50;;;;;;;13.35;53.67;95429.13;106424;1276;27655;-67
2023/03/21 09:00:36;;;;;;;12.80;9.10;;;;;;;13.37;53.15;95427.29;106432;1276;25451;-71
2023/03/21 09:03:04;;;;;;;15.30;10.00;;;;;;;13.35;52.06;95427.00;106600;1276;23895;-67
2023/03/21 09:05:33;;;;;;;14.40;8.90;;;;;;;13.35;52.29;95431.08;106486;1276;22630;-70
2023/03/21 09:08:02;;;;;;;10.60;8.80;;;;;;;13.37;52.57;95426.58;106566;1276;24266;-72
2023/03/21 09:10:30;;;;;;;20.70;10.70;;;;;;;13.42;53.30;95429.42;106664;1276;22639;-71
2023/03/21 09:12:59;;;;;;;14.20;9.50;;;;;;;13.48;53.16;95425.20;106635;1276;22527;-72
2023/03/21 09:15:28;;;;;;;12.30;8.00;;;;;;;13.44;52.37;95424.79;106554;1276;24245;-69
2023/03/21 09:18:11;;;;;;;21.50;9.70;;;;;;;13.41;52.90;95423.45;106473;1276;22643;-68
2023/03/21 09:20:45;;;;;;;11.30;7.40;;;;;;;13.36;52.14;95419.21;106468;1276;25315;-68
2023/03/21 09:23:14;;;;;;;;;;;;;;;13.30;52.50;95420.64;106399;1275;24191;-68
2023/03/21 09:25:44;;;;;;;10.80;7.70;;;;;;;13.36;53.22;95423.27;106425;1275;25288;-69
2023/03/21 09:28:13;;;;;;;12.20;8.80;;;;;;;13.67;52.14;95421.18;106477;1275;22561;-68
2023/03/21 09:30:41;;;;;;;12.80;8.60;;;;;;;14.01;51.58;95416.15;106507;1275;22574;-71
2023/03/21 09:33:18;;;;;;;11.90;8.50;;;;;;;14.32;50.12;95410.63;107469;1275;22812;-69
2023/03/21 09:35:46;;;;;;;11.30;8.00;;;;;;;14.51;49.12;95408.87;106678;1275;25220;-68
2023/03/21 09:38:18;;;;;;;11.60;7.60;;;;;;;14.59;49.82;95407.92;106445;1275;24524;-71
2023/03/21 09:41:37;;;;;;;9.70;7.40;;;;;;;14.71;47.95;95402.48;106707;1275;23012;-69
2023/03/21 09:44:30;;;;;;;10.30;7.00;;;;;;;15.08;47.53;95393.98;106124;1275;22528;-70
2023/03/21 09:47:23;;;;;;;9.10;6.00;;;;;;;15.25;46.60;95395.07;107981;1275;24203;-70
2023/03/21 09:50:16;;;;;;;7.80;6.00;;;;;;;15.25;45.29;95393.30;106601;1275;24092;-70
2023/03/21 09:52:50;;;;;;;10.30;6.90;;;;;;;15.21;46.41;95393.30;106579;1275;22635;-70
2023/03/21 09:55:29;;;;;;;8.40;6.40;;;;;;;15.07;46.24;95394.92;106464;1275;22958;-69
2023/03/21 09:58:26;;;;;;;8.90;6.50;;;;;;;14.96;46.78;95397.80;106562;1275;22536;-73
2023/03/21 10:01:27;;;;;;;9.30;7.10;;;;;;;14.77;46.12;95396.27;106444;1275;24317;-71
2023/03/21 10:03:59;;;;;;;11.90;7.10;;;;;;;14.83;46.94;95394.61;107172;1275;24371;-75
2023/03/21 10:06:29;;;;;;;7.40;5.80;;;;;;;15.12;46.18;95395.77;106584;1275;26471;-75
2023/03/21 10:09:05;;;;;;;6.80;5.10;;;;;;;15.40;45.50;95390.21;106601;1275;25382;-76
2023/03/21 10:12:07;;;;;;;7.20;4.80;;;;;;;15.70;43.41;95383.66;106632;1275;23175;-76
2023/03/21 10:14:40;;;;;;;9.30;5.80;;;;;;;15.94;43.58;95383.91;106573;1275;22523;-76
2023/03/21 10:17:34;;;;;;;7.00;6.10;;;;;;;16.11;43.72;95381.77;106638;1254;25637;-76
2023/03/21 10:20:14;;;;;;;;;;;;;;;16.33;42.90;95380.79;106680;1275;22619;-77
2023/03/21 10:22:45;;;;;;;7.30;6.00;;;;;;;16.51;42.46;95376.79;106159;1275;22560;-77
2023/03/21 10:25:21;;;;;;;7.20;5.90;;;;;;;16.63;41.82;95372.14;106478;1275;26228;-74
2023/03/21 10:27:51;;;;;;;8.00;6.20;;;;;;;16.72;41.01;95369.45;106614;1275;24247;-75
2023/03/21 10:30:26;;;;;;;8.40;5.80;;;;;;;16.87;41.65;95367.88;106681;1275;25322;-75
2023/03/21 10:32:58;;;;;;;8.00;6.20;;;;;;;17.11;41.11;95366.73;106728;1275;22524;-76
2023/03/21 10:35:27;;;;;;;9.10;6.20;;;;;;;17.13;40.93;95363.30;106677;1275;22530;-75
2023/03/21 10:37:55;;;;;;;8.10;6.30;;;;;;;17.02;39.88;95366.27;106734;1275;24315;-75
2023/03/21 10:40:23;;;;;;;7.10;6.30;;;;;;;16.65;40.04;95369.75;106695;1275;22514;-75
2023/03/21 10:42:56;;;;;;;11.20;6.90;;;;;;;16.35;41.04;95378.59;106670;1275;24209;-75
2023/03/21 10:45:24;;;;;;;7.50;5.50;;;;;;;16.06;41.45;95371.33;106640;1275;25503;-75
2023/03/21 10:47:54;;;;;;;8.10;5.70;;;;;;;15.93;42.00;95369.07;106639;1275;25332;-75
2023/03/21 10:50:29;;;;;;;6.40;5.30;;;;;;;15.79;41.93;95365.39;106689;1275;22530;-76
2023/03/21 10:52:59;;;;;;;6.40;4.90;;;;;;;15.77;42.24;95363.73;106587;1275;22551;-77
2023/03/21 10:55:33;;;;;;;7.20;5.00;;;;;;;15.84;42.33;95358.27;106585;1275;24258;-75
2023/03/21 10:58:09;;;;;;;7.70;4.70;;;;;;;16.31;42.45;95354.09;106608;1275;22532;-75
2023/03/21 11:00:42;;;;;;;8.60;5.40;;;;;;;16.84;41.16;95353.11;106599;1275;25465;-75
2023/03/21 11:03:37;;;;;;;9.00;5.70;;;;;;;16.92;40.55;95347.77;106669;1275;25383;-76
2023/03/21 11:06:21;;;;;;;7.90;5.80;;;;;;;16.59;39.58;95350.11;106646;1275;22630;-75
2023/03/21 11:08:54;;;;;;;14.40;8.30;;;;;;;16.20;42.02;95358.98;106607;1253;22689;-75
2023/03/21 11:11:27;;;;;;;;;;;;;;;15.94;43.36;95356.79;106654;1275;24474;-75
2023/03/21 11:13:58;;;;;;;8.80;7.50;;;;;;;15.69;44.10;95354.11;106620;1275;22784;-75
2023/03/21 11:16:32;;;;;;;17.60;13.40;;;;;;;15.58;45.06;95349.39;106574;1275;22794;-77
2023/03/21 11:19:11;;;;;;;16.40;11.90;;;;;;;15.44;44.86;95351.05;106696;1275;25329;-77
2023/03/21 11:21:40;;;;;;;24.80;16.40;;;;;;;15.20;44.77;95352.38;106618;1275;25319;-77
2023/03/21 11:24:17;;;;;;;40.60;25.20;;;;;;;15.03;44.88;95355.40;106690;1275;22532;-77
2023/03/21 11:26:48;;;;;;;23.50;17.30;;;;;;;14.83;45.10;95359.16;106624;1275;24352;-77
2023/03/21 11:29:19;;;;;;;11.80;8.00;;;;;;;14.62;46.05;95354.86;106655;1275;22541;-77
2023/03/21 11:31:48;;;;;;;11.70;9.60;;;;;;;14.46;46.62;95360.05;106537;1275;22514;-76
2023/03/21 11:34:37;;;;;;;27.90;20.00;;;;;;;14.33;46.42;95360.50;106679;1275;22549;-76
2023/03/21 11:37:27;;;;;;;15.40;10.90;;;;;;;14.26;47.27;95357.77;106603;1275;22652;-75
2023/03/21 11:40:16;;;;;;;13.10;8.60;;;;;;;14.24;47.87;95350.05;106613;1275;22530;-76
2023/03/21 11:42:50;;;;;;;9.50;7.10;;;;;;;14.31;48.90;95345.02;106661;1275;22624;-75
2023/03/21 11:45:21;;;;;;;8.10;6.70;;;;;;;14.42;48.76;95337.34;106930;1275;24332;-76
2023/03/21 11:47:52;;;;;;;8.20;6.50;;;;;;;14.64;48.64;95333.91;106661;1275;24371;-75
2023/03/21 11:50:33;;;;;;;8.80;6.60;;;;;;;14.91;48.23;95328.21;106664;1275;22636;-74
2023/03/21 11:53:27;;;;;;;7.70;6.20;;;;;;;15.27;47.27;95319.33;106696;1275;22581;-74
2023/03/21 11:56:10;;;;;;;8.80;6.70;;;;;;;15.95;45.84;95316.64;106691;1275;24476;-75
2023/03/21 11:58:50;;;;;;;7.90;6.70;;;;;;;16.39;44.44;95309.52;106637;1252;22540;-75
2023/03/21 12:01:48;;;;;;;7.50;6.20;;;;;;;16.67;43.06;95302.73;106631;1275;25277;-75